Aérodrome :
LOGIN :

S'inscrire | Disclaimer

   EN    FR    IT 

 










Légende :    VFR   VFR Marginal   IFR   IFR Intensif   IFR Très Intensif
Visi : 
Plafond : 
>= 8 km
>= 3000ft
5 à 8 km
1000 à 3000 ft
1500m à 5 km
500 à 1000 ft
800 à 1500m
200 à 500 ft
< 800m
< 200 ft
Symboles :   Orages  Brouillard  Fortes neiges  Fortes précipitations  Vent > 20 kt
SIGMETs :   Divers  Orages  Givrage  Turbulence  Onde Orograph.  Cendres Volcan.







- Altitude de l'aérodrome : 17 ft
- Code IATA : MPL
- Voir les cartes d'approche


LFMT - Montpellier Méditerranée

DERNIER METAR :
  • 281130Z AUTO 01012KT 340V050 CAVOK 15/M04 Q1016 NOSIG

METARs EXPIRÉS :
  • 281100Z AUTO 35013KT 300V040 CAVOK 15/M04 Q1016 NOSIG
  • 281030Z AUTO 36014KT 330V040 CAVOK 15/M04 Q1016 NOSIG
  • 281000Z AUTO 36015KT 330V040 CAVOK 14/M03 Q1016 NOSIG
  • 280930Z AUTO 34013KT 300V020 CAVOK 14/M03 Q1016 NOSIG
  • 280900Z AUTO 34015KT CAVOK 13/M04 Q1016 NOSIG

TAF TAF LFMT
Valide du 28 à 09h jusqu'au 29 à 09h UTC


280800Z 2809/2909 31012KT CAVOK
BECMG 2809/2811 02012KT
ATIS : +33 4 67 13 11 70
Pas de NOTAMs connus pour ce terrain.
2 SIGMETs publiés pour la FIR Marseille (LFMM) :
 
Turbulence forte
LFMM SIGMET 6 VALID 281100/281500 LFPW
LFMM MARSEILLE FIR/UIR SEV TURB FCST WI N4300 E00945 - N4115 E00945 - N4115 E00600 - N4430 E00300 - N4445 E00500 - N4345 E00700 SFC/FL060 STNR WKN=
Onde orographique forte
LFMM SIGMET 5 VALID 281100/281500 LFPW
LFMM MARSEILLE FIR/UIR SEV MTW FCST WI N4315 E00930 - N4315 E00945 - N4115 E00945 - N4115 E00845 - N4230 E00815 FL060/260 STNR WKN=



MET'MAP, la Météo Aéronautique d'un coup d'oeil ! - Copyright ORBIFLY Décembre 2007 - Disclaimer

ORBIFLY MET'MAP TEAM :

Programmation & Développement : Alexandra Zaïnal
Conception & Développement : Baudouin d'Aumeries
Co-Programmation & Développement : Marc-Olivier Méhu
Soutien technique & logistique : Manuel Goepfert

Contact : metmap@orbifly.com




SOURCES & CREDITS :

   NOAA